Time;durP1;ratioP1;P1;durP2;ratioP2;P2;SDS_P1;SDS_P2;PMS_P1;PMS_P2;Temp;Humidity;BMP_temperature;BMP_pressure;BME280_temperature;BME280_humidity;BME280_pressure;Samples;Min_cycle;Max_cycle;Signal;HPM_P1;HPM_P2
2023/12/14 00:02:19;;;;;;;18.15;14.35;;;;;;;7.21;70.51;98489.63;4470744;32;34390;-77
2023/12/14 00:04:48;;;;;;;18.33;12.57;;;;;;;7.24;70.15;98482.28;4470240;32;48888;-78
2023/12/14 00:07:17;;;;;;;15.38;13.50;;;;;;;7.19;70.33;98491.50;4470244;32;34958;-77
2023/12/14 00:09:48;;;;;;;16.95;13.23;;;;;;;6.83;70.76;98488.12;4470272;32;34702;-77
2023/12/14 00:12:21;;;;;;;15.20;11.50;;;;;;;6.93;70.56;98483.84;4470266;32;33799;-78
2023/12/14 00:14:50;;;;;;;15.88;12.57;;;;;;;6.73;71.21;98479.25;4470087;32;33764;-77
2023/12/14 00:17:20;;;;;;;19.35;12.32;;;;;;;6.96;70.06;98478.31;4455948;32;34093;-77
2023/12/14 00:19:49;;;;;;;20.08;14.18;;;;;;;7.05;69.78;98482.06;4470523;32;33949;-77
2023/12/14 00:22:18;;;;;;;18.20;14.02;;;;;;;6.50;71.69;98488.91;4470067;32;35080;-77
2023/12/14 00:24:50;;;;;;;18.70;14.63;;;;;;;6.54;71.90;98498.25;4455776;32;33132;-77
2023/12/14 00:27:19;;;;;;;21.25;14.90;;;;;;;6.37;72.64;98504.72;4470090;32;34523;-77
2023/12/14 00:29:48;;;;;;;21.90;15.48;;;;;;;6.03;73.79;98514.28;4470150;32;34179;-78
2023/12/14 00:32:20;;;;;;;23.15;15.55;;;;;;;6.27;73.23;98519.53;4470064;32;33690;-77
2023/12/14 00:34:49;;;;;;;21.80;15.15;;;;;;;6.33;73.16;98525.16;4470388;32;33861;-77
2023/12/14 00:37:19;;;;;;;21.62;15.07;;;;;;;6.59;72.48;98531.13;4470405;32;34137;-78
2023/12/14 00:39:48;;;;;;;22.73;15.07;;;;;;;6.36;73.02;98538.09;4470285;32;34338;-77
2023/12/14 00:42:18;;;;;;;19.87;14.00;;;;;;;6.72;71.93;98548.62;4469916;32;33539;-77
2023/12/14 00:44:48;;;;;;;22.65;16.35;;;;;;;6.82;71.61;98549.66;4469899;32;33953;-77
2023/12/14 00:47:17;;;;;;;21.52;15.05;;;;;;;6.57;72.49;98569.91;4470309;32;34115;-78
2023/12/14 00:49:50;;;;;;;23.55;15.70;;;;;;;6.69;72.40;98581.28;4469946;32;49269;-77
2023/12/14 00:52:19;;;;;;;18.77;14.00;;;;;;;6.37;73.49;98591.56;4469979;32;34023;-77
2023/12/14 00:54:48;;;;;;;19.77;15.18;;;;;;;6.83;72.03;98594.28;4469841;32;34798;-77
2023/12/14 00:57:18;;;;;;;19.25;14.35;;;;;;;7.06;71.00;98618.88;4469946;32;35206;-77
2023/12/14 00:59:48;;;;;;;21.67;15.20;;;;;;;6.74;72.00;98630.97;4469892;32;34189;-77
2023/12/14 01:02:17;;;;;;;23.42;15.32;;;;;;;7.02;71.33;98630.59;4470153;32;34075;-77
2023/12/14 01:04:47;;;;;;;22.83;15.57;;;;;;;6.96;71.34;98627.59;4453116;32;49150;-77
2023/12/14 01:07:21;;;;;;;21.83;16.12;;;;;;;7.05;71.05;98617.22;4454266;32;34736;-78
2023/12/14 01:09:50;;;;;;;30.65;17.17;;;;;;;7.06;70.94;98623.31;4454195;32;34045;-77
2023/12/14 01:12:21;;;;;;;22.00;15.32;;;;;;;7.19;70.54;98610.06;4454115;32;33556;-78
2023/12/14 01:14:54;;;;;;;25.45;17.12;;;;;;;7.04;70.85;98604.16;4454001;32;33977;-77
2023/12/14 01:17:31;;;;;;;20.65;14.77;;;;;;;7.10;70.55;98590.53;4454091;32;34014;-78
2023/12/14 01:20:00;;;;;;;21.90;16.65;;;;;;;6.77;71.44;98578.09;4454468;32;34002;-78
2023/12/14 01:22:33;;;;;;;21.55;15.00;;;;;;;7.04;70.59;98570.75;4454364;32;33594;-77
2023/12/14 01:25:03;;;;;;;23.33;15.32;;;;;;;6.96;70.80;98559.13;4454022;32;34596;-77
2023/12/14 01:27:34;;;;;;;21.20;15.60;;;;;;;6.85;71.45;98560.78;4454083;32;34010;-77
2023/12/14 01:30:04;;;;;;;21.98;14.82;;;;;;;6.78;71.72;98562.19;4454048;32;34005;-78
2023/12/14 01:32:33;;;;;;;22.08;16.02;;;;;;;6.82;71.59;98566.28;4453880;32;33258;-78
2023/12/14 01:35:04;;;;;;;21.80;16.00;;;;;;;6.79;71.65;98557.75;4453977;32;34042;-77
2023/12/14 01:37:33;;;;;;;28.40;19.48;;;;;;;6.74;72.08;98555.47;4453997;32;34049;-77
2023/12/14 01:40:03;;;;;;;24.80;16.10;;;;;;;6.67;72.54;98559.53;4453937;32;34834;-77
2023/12/14 01:42:34;;;;;;;20.98;15.10;;;;;;;6.92;71.65;98553.25;4453951;32;33845;-77
2023/12/14 01:45:05;;;;;;;23.33;13.93;;;;;;;7.16;71.11;98547.91;4453593;32;34678;-78
2023/12/14 01:47:34;;;;;;;22.33;14.52;;;;;;;7.09;71.14;98550.19;4453891;32;35038;-78
2023/12/14 01:50:03;;;;;;;19.67;13.95;;;;;;;6.98;71.46;98544.87;4454341;32;34010;-78
2023/12/14 01:52:34;;;;;;;17.40;11.65;;;;;;;6.91;71.82;98546.31;4453965;32;33590;-78
2023/12/14 01:55:04;;;;;;;21.20;14.25;;;;;;;7.21;70.90;98556.31;4453755;32;33993;-78
2023/12/14 01:57:35;;;;;;;19.87;13.77;;;;;;;7.05;71.45;98555.81;4453941;32;34749;-78
2023/12/14 02:00:05;;;;;;;19.70;13.05;;;;;;;7.14;71.10;98561.19;4444553;32;32785;-78
2023/12/14 02:02:35;;;;;;;20.33;12.82;;;;;;;7.25;70.75;98568.28;4469312;32;34245;-78
2023/12/14 02:05:05;;;;;;;22.87;14.38;;;;;;;7.21;70.82;98576.53;4469580;32;33885;-78
2023/12/14 02:07:34;;;;;;;18.98;12.95;;;;;;;7.11;71.35;98584.28;4469380;32;34080;-78
2023/12/14 02:10:04;;;;;;;17.92;12.85;;;;;;;7.21;70.96;98587.09;4469225;32;34012;-78
2023/12/14 02:12:38;;;;;;;22.48;14.73;;;;;;;6.89;71.87;98588.56;4462925;32;33235;-79
2023/12/14 02:15:08;;;;;;;20.85;13.32;;;;;;;7.15;71.23;98588.38;4455021;32;33068;-78
2023/12/14 02:17:38;;;;;;;22.42;14.85;;;;;;;7.01;71.62;98593.84;4471074;32;34098;-78
2023/12/14 02:20:08;;;;;;;20.55;13.45;;;;;;;7.29;70.85;98580.25;4471395;32;33908;-78
2023/12/14 02:22:51;;;;;;;18.50;12.95;;;;;;;7.28;70.87;98570.66;4464828;32;33535;-78
2023/12/14 02:25:21;;;;;;;19.60;13.62;;;;;;;7.18;71.33;98566.25;4470869;32;33879;-78
2023/12/14 02:27:52;;;;;;;19.77;11.98;;;;;;;7.47;70.33;98577.16;4471085;32;35197;-79
2023/12/14 02:30:22;;;;;;;20.88;13.57;;;;;;;7.46;70.07;98573.69;4471112;32;34863;-78
2023/12/14 02:32:51;;;;;;;21.75;15.35;;;;;;;7.34;70.33;98569.38;4470970;32;34441;-78
2023/12/14 02:35:20;;;;;;;22.20;14.77;;;;;;;7.19;70.69;98571.38;4470426;32;33747;-78
2023/12/14 02:37:51;;;;;;;20.92;14.13;;;;;;;7.10;70.89;98582.63;4470908;32;33994;-78
2023/12/14 02:40:20;;;;;;;23.05;15.35;;;;;;;6.72;72.37;98581.06;4470523;32;34592;-78
2023/12/14 02:42:49;;;;;;;22.77;14.57;;;;;;;6.89;71.95;98587.72;4470235;32;33520;-78
2023/12/14 02:45:19;;;;;;;21.62;14.45;;;;;;;6.90;71.75;98589.41;4470060;32;34263;-78
2023/12/14 02:47:49;;;;;;;20.73;15.32;;;;;;;7.12;71.25;98594.69;4470097;32;34168;-77
2023/12/14 02:50:19;;;;;;;19.20;14.45;;;;;;;7.06;71.30;98594.34;4470469;32;34002;-78
2023/12/14 02:52:53;;;;;;;19.45;14.75;;;;;;;6.89;71.57;98585.94;4454599;32;49214;-78
2023/12/14 02:55:22;;;;;;;21.67;13.90;;;;;;;7.17;70.59;98581.22;4467454;32;34688;-78
2023/12/14 02:57:51;;;;;;;21.90;14.98;;;;;;;7.26;70.26;98574.38;4470086;32;35222;-78
2023/12/14 03:00:21;;;;;;;23.70;15.02;;;;;;;7.28;70.05;98573.28;4469997;32;34663;-78
2023/12/14 03:02:50;;;;;;;25.27;15.55;;;;;;;6.86;71.19;98574.78;4469968;32;33472;-78
2023/12/14 03:05:19;;;;;;;19.75;14.60;;;;;;;6.87;71.50;98576.44;4470249;32;33944;-78
2023/12/14 03:07:49;;;;;;;19.52;13.88;;;;;;;7.04;71.33;98578.66;4469681;32;50051;-78
2023/12/14 03:10:19;;;;;;;20.88;14.60;;;;;;;6.84;71.80;98576.69;4470010;32;34692;-78
2023/12/14 03:12:49;;;;;;;24.02;16.05;;;;;;;6.99;71.43;98582.59;4469937;32;33608;-78
2023/12/14 03:15:19;;;;;;;24.33;16.45;;;;;;;7.03;71.05;98584.88;4469745;32;34033;-78
2023/12/14 03:17:48;;;;;;;24.90;16.02;;;;;;;6.99;71.22;98586.06;4469726;32;34743;-78
2023/12/14 03:20:17;;;;;;;23.17;15.40;;;;;;;6.95;71.13;98591.69;4469927;32;34062;-78
2023/12/14 03:22:46;;;;;;;22.70;15.68;;;;;;;7.27;70.51;98599.78;4469672;32;48970;-78
2023/12/14 03:25:16;;;;;;;23.60;15.80;;;;;;;7.10;70.77;98601.91;4469589;32;34607;-78
2023/12/14 03:27:49;;;;;;;23.25;16.30;;;;;;;7.09;71.22;98610.75;4469052;32;34282;-78
2023/12/14 03:30:19;;;;;;;23.20;14.90;;;;;;;6.94;71.95;98625.06;4469717;32;34189;-78
2023/12/14 03:32:48;;;;;;;24.15;15.77;;;;;;;6.77;72.70;98643.91;4469666;32;34284;-78
2023/12/14 03:35:17;;;;;;;24.98;15.73;;;;;;;7.04;71.85;98647.13;4457191;32;418661;-78
2023/12/14 03:37:46;;;;;;;24.85;18.08;;;;;;;6.98;72.33;98647.59;4470258;32;50054;-78
2023/12/14 03:40:16;;;;;;;23.50;14.25;;;;;;;6.87;72.53;98665.97;4470508;32;34293;-78
2023/12/14 03:42:46;;;;;;;24.98;16.23;;;;;;;6.87;72.95;98665.97;4470437;32;34077;-78
2023/12/14 03:45:16;;;;;;;24.00;17.25;;;;;;;6.98;72.63;98671.28;4470240;32;34158;-78
2023/12/14 03:47:47;;;;;;;26.25;17.12;;;;;;;7.07;72.23;98675.03;4470461;32;34199;-78
2023/12/14 03:50:17;;;;;;;27.65;16.12;;;;;;;6.89;73.04;98674.63;4470700;32;33971;-78
2023/12/14 03:52:46;;;;;;;26.25;16.00;;;;;;;6.87;72.98;98681.78;4470420;32;48937;-78
2023/12/14 03:55:16;;;;;;;28.73;16.67;;;;;;;7.08;72.28;98680.19;4470204;32;33979;-78
2023/12/14 03:57:50;;;;;;;25.65;15.80;;;;;;;6.95;72.49;98674.16;4470470;32;34107;-78
2023/12/14 04:00:21;;;;;;;27.77;16.65;;;;;;;7.12;71.99;98667.63;4470468;32;34002;-78
2023/12/14 04:02:51;;;;;;;26.55;17.87;;;;;;;7.11;71.97;98682.59;4470418;32;34209;-78
2023/12/14 04:05:20;;;;;;;26.52;16.85;;;;;;;7.05;71.98;98683.06;4470617;32;34044;-78
2023/12/14 04:07:52;;;;;;;25.70;16.02;;;;;;;7.17;71.67;98688.34;4470393;32;48895;-78
2023/12/14 04:10:27;;;;;;;30.48;19.17;;;;;;;7.13;71.70;98685.97;4470211;32;34340;-79
2023/12/14 04:12:56;;;;;;;29.95;19.00;;;;;;;6.97;72.14;98685.44;4470228;32;35005;-78
2023/12/14 04:15:27;;;;;;;25.90;18.10;;;;;;;7.11;71.79;98689.66;4455831;32;32294;-78
2023/12/14 04:17:57;;;;;;;29.35;17.33;;;;;;;6.99;72.23;98687.94;4470255;32;33930;-78
2023/12/14 04:20:26;;;;;;;28.65;19.50;;;;;;;6.75;72.62;98695.84;4470141;32;34712;-77
2023/12/14 04:22:55;;;;;;;29.77;18.83;;;;;;;6.87;72.53;98693.13;4470542;32;34577;-78
2023/12/14 04:25:24;;;;;;;31.23;19.50;;;;;;;6.79;72.78;98700.75;4455697;32;34699;-78
2023/12/14 04:27:53;;;;;;;32.60;18.25;;;;;;;7.05;72.14;98701.50;4470121;32;34114;-78
2023/12/14 04:30:22;;;;;;;29.90;18.92;;;;;;;6.86;72.71;98703.81;4470251;32;34169;-78
2023/12/14 04:32:55;;;;;;;31.58;20.20;;;;;;;6.62;73.50;98706.41;4470253;32;33494;-78
2023/12/14 04:35:25;;;;;;;28.87;17.75;;;;;;;6.89;73.04;98700.94;4469798;32;34102;-78
2023/12/14 04:37:54;;;;;;;29.02;17.42;;;;;;;7.03;72.51;98699.91;4470441;32;34891;-78
2023/12/14 04:40:23;;;;;;;31.48;20.58;;;;;;;7.08;72.23;98703.88;4470186;32;34264;-78
2023/12/14 04:42:55;;;;;;;;;;;;;;;7.18;72.17;98704.06;4470337;32;33411;-78
2023/12/14 04:45:24;;;;;;;29.58;18.70;;;;;;;7.15;71.91;98702.47;4469901;32;34649;-78
2023/12/14 04:47:56;;;;;;;33.17;20.55;;;;;;;7.06;72.37;98703.16;4470022;32;34588;-78
2023/12/14 04:50:30;;;;;;;32.08;19.55;;;;;;;7.18;71.92;98708.50;4469916;32;34662;-78
2023/12/14 04:52:59;;;;;;;31.98;21.00;;;;;;;7.37;71.46;98712.28;4470315;32;33690;-79
2023/12/14 04:55:28;;;;;;;30.35;19.52;;;;;;;7.25;71.88;98720.25;4469858;32;33737;-78
2023/12/14 04:57:57;;;;;;;33.28;18.60;;;;;;;7.22;72.07;98723.94;4469965;32;34186;-78
2023/12/14 05:00:27;;;;;;;33.47;19.85;;;;;;;7.35;71.74;98729.13;4469770;32;34782;-78
2023/12/14 05:02:58;;;;;;;67.87;34.90;;;;;;;7.42;71.43;98733.00;4470023;32;34621;-79
2023/12/14 05:05:27;;;;;;;72.62;39.22;;;;;;;7.67;70.40;98737.25;4469662;32;33984;-78
2023/12/14 05:07:57;;;;;;;66.07;39.28;;;;;;;7.43;71.10;98739.09;4470217;32;34368;-78
2023/12/14 05:10:26;;;;;;;102.87;46.50;;;;;;;7.54;70.73;98725.97;4469795;32;34569;-78
2023/12/14 05:12:55;;;;;;;71.12;36.83;;;;;;;7.49;70.83;98728.97;4469879;32;33815;-78
2023/12/14 05:15:25;;;;;;;59.97;30.02;;;;;;;7.63;70.29;98731.38;4469679;32;34793;-78
2023/12/14 05:17:57;;;;;;;100.90;48.42;;;;;;;7.47;70.84;98736.13;4469887;32;34225;-79
2023/12/14 05:20:35;;;;;;;76.45;41.30;;;;;;;7.53;70.80;98734.84;4469719;32;34639;-78
2023/12/14 05:23:04;;;;;;;47.08;28.77;;;;;;;7.57;70.36;98737.13;4469916;32;33456;-79
2023/12/14 05:25:33;;;;;;;35.50;22.60;;;;;;;7.24;71.44;98743.09;4469440;32;33891;-79
2023/12/14 05:28:02;;;;;;;37.78;24.73;;;;;;;7.24;71.64;98750.16;4469644;32;34281;-79
2023/12/14 05:30:32;;;;;;;37.00;22.60;;;;;;;7.33;71.57;98755.62;4469555;32;34564;-79
2023/12/14 05:33:01;;;;;;;42.62;28.12;;;;;;;7.41;71.25;98762.12;4469721;32;33545;-78
2023/12/14 05:35:30;;;;;;;105.30;41.33;;;;;;;7.43;71.08;98776.84;4469389;32;34083;-78
2023/12/14 05:38:01;;;;;;;72.57;34.47;;;;;;;7.44;71.03;98775.88;4469900;32;34087;-79
2023/12/14 05:40:31;;;;;;;60.25;34.40;;;;;;;7.49;70.93;98771.12;4469791;32;34218;-79
2023/12/14 05:43:00;;;;;;;45.35;26.45;;;;;;;7.60;70.51;98778.22;4469603;32;33429;-79
2023/12/14 05:45:30;;;;;;;39.13;23.20;;;;;;;7.54;70.78;98778.69;4469340;32;34472;-79
2023/12/14 05:47:59;;;;;;;40.72;23.10;;;;;;;7.45;70.82;98782.00;4469566;32;34092;-79
2023/12/14 05:50:31;;;;;;;38.60;22.73;;;;;;;7.47;70.92;98788.84;4468708;32;34105;-78
2023/12/14 05:53:02;;;;;;;38.53;23.80;;;;;;;7.33;71.27;98781.97;4469790;32;33850;-79
2023/12/14 05:55:31;;;;;;;35.50;21.77;;;;;;;7.28;71.19;98789.34;4469202;32;33885;-78
2023/12/14 05:58:00;;;;;;;34.70;22.05;;;;;;;7.16;71.75;98795.50;4469442;32;34103;-79
2023/12/14 06:00:30;;;;;;;35.97;22.33;;;;;;;7.28;71.56;98796.41;4469267;32;34638;-79
2023/12/14 06:02:59;;;;;;;31.80;21.02;;;;;;;7.22;71.73;98799.50;4469297;32;33859;-78
2023/12/14 06:05:28;;;;;;;37.28;23.48;;;;;;;7.29;71.29;98811.28;4469098;32;34631;-78
2023/12/14 06:07:58;;;;;;;32.63;21.08;;;;;;;7.19;71.52;98808.47;4469651;32;34064;-79
2023/12/14 06:10:29;;;;;;;34.00;21.80;;;;;;;7.04;72.21;98810.41;4469213;32;33952;-79
2023/12/14 06:12:58;;;;;;;35.22;20.23;;;;;;;7.34;71.23;98806.50;4469342;32;33592;-79
2023/12/14 06:15:28;;;;;;;39.53;25.85;;;;;;;7.30;71.43;98812.97;4469106;32;34566;-78
2023/12/14 06:17:57;;;;;;;52.67;35.72;;;;;;;7.07;72.10;98814.63;4469203;32;33991;-79
2023/12/14 06:20:26;;;;;;;46.08;34.10;;;;;;;7.35;71.16;98816.09;4469070;32;34216;-78
2023/12/14 06:22:58;;;;;;;41.50;27.58;;;;;;;7.52;70.47;98813.09;4469380;32;33538;-79
2023/12/14 06:25:29;;;;;;;42.62;29.90;;;;;;;7.40;70.69;98816.59;4468843;32;34813;-79
2023/12/14 06:27:59;;;;;;;51.13;32.45;;;;;;;7.24;71.45;98818.66;4469224;32;34626;-79
2023/12/14 06:30:31;;;;;;;36.25;26.37;;;;;;;7.42;70.61;98827.03;4468804;32;34158;-79
2023/12/14 06:33:00;;;;;;;35.58;24.17;;;;;;;7.35;70.65;98827.47;4468849;32;34066;-79
2023/12/14 06:35:30;;;;;;;32.83;20.83;;;;;;;7.25;71.22;98836.19;4468584;32;33961;-78
2023/12/14 06:37:59;;;;;;;35.55;23.50;;;;;;;7.39;70.98;98841.28;4469049;32;33957;-79
2023/12/14 06:40:34;;;;;;;32.60;22.87;;;;;;;7.51;70.39;98843.00;4468637;32;34525;-79
2023/12/14 06:43:05;;;;;;;34.03;24.77;;;;;;;7.35;70.99;98847.72;4468541;32;34606;-79
2023/12/14 06:45:34;;;;;;;40.38;27.30;;;;;;;7.46;70.21;98847.78;4468445;32;34100;-78
2023/12/14 06:48:03;;;;;;;37.83;27.00;;;;;;;7.46;70.66;98853.06;4468373;32;34463;-78
2023/12/14 06:50:32;;;;;;;41.30;25.60;;;;;;;7.48;70.67;98853.75;4468300;32;34312;-79
2023/12/14 06:53:04;;;;;;;38.33;24.20;;;;;;;7.36;70.89;98862.56;4468588;32;34399;-79
2023/12/14 06:55:36;;;;;;;38.65;23.85;;;;;;;7.23;71.55;98862.62;4468352;32;34383;-79
2023/12/14 06:58:11;;;;;;;32.67;23.17;;;;;;;7.37;71.00;98866.91;4468470;32;33979;-79
2023/12/14 07:00:40;;;;;;;31.40;22.45;;;;;;;7.49;70.33;98871.28;4468365;32;34256;-78
2023/12/14 07:03:09;;;;;;;34.40;21.77;;;;;;;7.31;70.98;98867.34;4469322;32;33886;-79
2023/12/14 07:05:39;;;;;;;33.20;21.30;;;;;;;7.08;71.93;98875.09;4470554;32;33991;-78
2023/12/14 07:08:09;;;;;;;36.72;22.67;;;;;;;7.15;71.84;98873.72;4471036;32;34120;-79
2023/12/14 07:10:43;;;;;;;33.80;22.87;;;;;;;7.08;72.04;98888.25;4470684;32;34787;-79
2023/12/14 07:13:13;;;;;;;34.92;23.50;;;;;;;7.07;72.36;98891.84;4470421;32;34438;-79
2023/12/14 07:15:42;;;;;;;30.40;21.50;;;;;;;7.17;71.83;98896.47;4456194;32;32391;-79
2023/12/14 07:18:11;;;;;;;32.25;22.37;;;;;;;7.18;71.59;98900.81;4470595;32;33973;-79
2023/12/14 07:20:40;;;;;;;30.73;21.77;;;;;;;7.03;72.45;98905.34;4470466;32;34399;-79
2023/12/14 07:23:10;;;;;;;31.67;22.20;;;;;;;7.14;71.68;98908.06;4470901;32;33850;-79
2023/12/14 07:25:39;;;;;;;32.25;21.92;;;;;;;7.19;71.68;98919.13;4464329;32;34658;-79
2023/12/14 07:28:12;;;;;;;30.95;22.45;;;;;;;6.80;73.00;98918.31;4470399;32;34929;-79
2023/12/14 07:30:40;;;;;;;33.80;24.48;;;;;;;7.09;72.54;98921.56;4470374;32;34185;-79
2023/12/14 07:33:10;;;;;;;36.28;24.37;;;;;;;7.13;72.14;98922.22;4470344;32;33961;-78
2023/12/14 07:35:39;;;;;;;35.88;23.35;;;;;;;7.28;71.79;98925.53;4464084;32;33937;-78
2023/12/14 07:38:11;;;;;;;34.53;24.58;;;;;;;6.98;72.68;98928.53;4470701;32;34084;-79
2023/12/14 07:40:41;;;;;;;32.47;21.52;;;;;;;7.26;71.90;98927.44;4470218;32;34277;-79
2023/12/14 07:43:10;;;;;;;34.33;22.58;;;;;;;7.27;71.99;98927.31;4470299;32;33829;-78
2023/12/14 07:45:40;;;;;;;37.90;23.05;;;;;;;7.14;72.59;98940.53;4464032;32;34653;-79
2023/12/14 07:48:10;;;;;;;38.22;23.90;;;;;;;7.44;71.50;98941.91;4470227;32;34094;-79
2023/12/14 07:50:39;;;;;;;37.83;24.70;;;;;;;7.03;72.83;98942.22;4470226;32;34422;-78
2023/12/14 07:53:08;;;;;;;35.72;22.25;;;;;;;7.00;73.20;98942.44;4470742;32;34566;-79
2023/12/14 07:55:37;;;;;;;37.92;23.62;;;;;;;6.95;73.25;98948.03;4470174;32;34174;-79
2023/12/14 07:58:06;;;;;;;41.65;22.55;;;;;;;6.93;73.13;98947.31;4470507;32;34223;-79
2023/12/14 08:00:37;;;;;;;36.45;25.65;;;;;;;6.90;73.33;98947.50;4470062;32;35033;-78
2023/12/14 08:03:07;;;;;;;34.55;22.55;;;;;;;7.30;72.04;98948.19;4470112;32;33737;-79
2023/12/14 08:05:37;;;;;;;34.30;23.05;;;;;;;7.18;72.53;98951.69;4469978;32;33968;-78
2023/12/14 08:08:06;;;;;;;41.78;24.27;;;;;;;6.87;73.48;98952.97;4470428;32;33951;-79
2023/12/14 08:10:35;;;;;;;39.00;24.17;;;;;;;6.96;73.05;98956.75;4470170;32;34280;-79
2023/12/14 08:13:04;;;;;;;39.05;25.00;;;;;;;7.26;72.31;98961.69;4470063;32;33721;-79
2023/12/14 08:15:34;;;;;;;35.15;23.52;;;;;;;7.06;72.94;98971.00;4469917;32;35470;-78
2023/12/14 08:18:04;;;;;;;40.17;25.92;;;;;;;7.18;73.04;98977.19;4470179;32;33973;-78
2023/12/14 08:20:34;;;;;;;36.10;22.02;;;;;;;7.34;72.17;98985.72;4469988;32;35012;-78
2023/12/14 08:23:04;;;;;;;35.97;24.02;;;;;;;7.35;72.11;98988.22;4470336;32;33939;-78
2023/12/14 08:25:32;;;;;;;34.55;23.75;;;;;;;7.37;71.89;98996.03;4469874;32;33873;-78
2023/12/14 08:28:02;;;;;;;40.58;25.83;;;;;;;6.96;72.77;99007.63;4469949;32;33963;-79
2023/12/14 08:30:34;;;;;;;35.17;23.55;;;;;;;6.93;72.85;99005.25;4455821;32;33703;-79
2023/12/14 08:33:03;;;;;;;37.38;25.35;;;;;;;7.53;71.42;99009.81;4469988;32;33539;-79
2023/12/14 08:35:32;;;;;;;43.83;28.08;;;;;;;7.43;71.52;99011.41;4469795;32;34570;-78
2023/12/14 08:38:09;;;;;;;41.35;28.15;;;;;;;7.59;70.63;99009.38;4470391;32;34636;-79
2023/12/14 08:40:38;;;;;;;40.80;30.08;;;;;;;7.76;70.31;99018.72;4469962;32;35010;-79
2023/12/14 08:43:08;;;;;;;38.30;29.15;;;;;;;7.79;70.27;99005.28;4470033;32;33878;-79
2023/12/14 08:45:36;;;;;;;40.80;27.90;;;;;;;7.54;71.19;99021.19;4470054;32;34012;-79
2023/12/14 08:48:06;;;;;;;28.65;21.98;;;;;;;7.83;70.31;99017.31;4469841;32;33659;-79
2023/12/14 08:50:35;;;;;;;32.20;22.35;;;;;;;7.60;70.71;99015.47;4469793;32;34286;-78
2023/12/14 08:53:06;;;;;;;31.77;22.75;;;;;;;7.75;70.42;99024.09;4470268;32;33914;-79
2023/12/14 08:55:38;;;;;;;31.33;22.73;;;;;;;7.94;70.06;99015.69;4463598;32;34237;-79
2023/12/14 08:58:08;;;;;;;32.72;23.02;;;;;;;7.94;70.18;99024.47;4469896;32;34850;-79
2023/12/14 09:00:38;;;;;;;27.13;20.12;;;;;;;7.98;69.76;99030.34;4469754;32;35158;-79
2023/12/14 09:03:09;;;;;;;30.62;20.55;;;;;;;7.80;70.30;99033.37;4469833;32;33775;-79
2023/12/14 09:05:41;;;;;;;31.92;21.67;;;;;;;7.82;70.15;99033.25;4469818;32;34722;-78
2023/12/14 09:08:13;;;;;;;27.95;22.05;;;;;;;7.76;70.49;99037.19;4471544;32;34053;-79
2023/12/14 09:10:42;;;;;;;27.85;20.80;;;;;;;8.08;69.51;99036.66;4469914;32;34212;-79
2023/12/14 09:13:12;;;;;;;29.50;22.55;;;;;;;8.00;70.17;99039.84;4469745;32;33596;-78
2023/12/14 09:15:41;;;;;;;32.63;22.10;;;;;;;8.00;70.36;99041.63;4469569;32;33843;-78
2023/12/14 09:18:10;;;;;;;31.37;22.98;;;;;;;8.00;70.32;99041.63;4469802;32;34440;-79
2023/12/14 09:20:40;;;;;;;26.65;20.73;;;;;;;8.19;69.74;99036.69;4469657;32;34943;-78
2023/12/14 09:23:13;;;;;;;26.23;20.30;;;;;;;8.25;69.59;99048.63;4470018;32;33778;-78
2023/12/14 09:25:42;;;;;;;;;;;;;;;7.81;70.63;99047.41;4468812;32;33858;-79
2023/12/14 09:28:11;;;;;;;27.62;19.98;;;;;;;8.07;70.19;99046.34;4469722;32;34080;-79
2023/12/14 09:30:41;;;;;;;27.17;20.67;;;;;;;7.94;70.19;99045.56;4469671;32;34244;-79
2023/12/14 09:33:10;;;;;;;31.87;22.60;;;;;;;7.94;70.66;99053.47;4469796;32;34403;-79
2023/12/14 09:35:41;;;;;;;35.50;25.15;;;;;;;7.80;71.10;99056.25;4469422;32;34284;-79
2023/12/14 09:38:13;;;;;;;30.33;22.13;;;;;;;7.92;70.86;99059.78;4470033;32;34063;-79
2023/12/14 09:40:44;;;;;;;30.83;21.02;;;;;;;8.33;69.85;99064.72;4469613;32;34186;-79
2023/12/14 09:43:14;;;;;;;33.42;23.52;;;;;;;8.50;68.81;99059.06;4469578;32;33883;-79
2023/12/14 09:45:44;;;;;;;28.98;21.35;;;;;;;8.29;69.66;99066.75;4469371;32;34492;-78
2023/12/14 09:48:16;;;;;;;25.88;19.08;;;;;;;8.32;69.75;99069.16;4455306;32;33348;-78
2023/12/14 09:50:47;;;;;;;27.62;21.42;;;;;;;8.18;69.68;99071.97;4455352;32;32954;-79
2023/12/14 09:53:18;;;;;;;27.30;19.33;;;;;;;8.38;69.20;99066.09;4469898;32;33832;-79
2023/12/14 09:55:49;;;;;;;25.40;19.37;;;;;;;8.60;68.43;99070.66;4469230;32;49066;-79
2023/12/14 09:58:18;;;;;;;30.83;21.83;;;;;;;8.25;69.84;99070.56;4469429;32;34535;-79
2023/12/14 10:00:48;;;;;;;26.42;21.48;;;;;;;8.15;70.03;99069.53;4469292;32;34360;-79
2023/12/14 10:03:22;;;;;;;23.75;18.98;;;;;;;8.23;69.91;99077.75;4469260;32;33861;-79
2023/12/14 10:05:51;;;;;;;23.58;19.20;;;;;;;8.35;69.67;99081.28;4469192;32;33948;-78
2023/12/14 10:08:22;;;;;;;29.30;20.27;;;;;;;8.55;68.83;99083.34;4469200;32;33862;-78
2023/12/14 10:10:55;;;;;;;29.08;20.05;;;;;;;8.37;69.58;99092.63;4455354;32;33574;-79
2023/12/14 10:13:38;;;;;;;28.60;19.80;;;;;;;8.32;69.31;99092.09;4469250;32;34503;-79
2023/12/14 10:16:13;;;;;;;28.12;20.30;;;;;;;8.54;68.45;99092.22;4469135;32;34572;-79
2023/12/14 10:18:42;;;;;;;26.23;20.33;;;;;;;8.77;68.04;99093.16;4469077;32;34846;-78
2023/12/14 10:21:11;;;;;;;28.52;19.83;;;;;;;8.76;67.88;99096.75;4469267;32;34980;-79
2023/12/14 10:23:41;;;;;;;26.62;18.87;;;;;;;8.55;68.53;99109.75;4469058;32;33798;-78
2023/12/14 10:26:11;;;;;;;25.45;18.55;;;;;;;8.73;68.32;99112.00;4469271;32;34080;-79
2023/12/14 10:28:41;;;;;;;22.92;17.73;;;;;;;8.73;68.20;99112.00;4468948;32;33979;-79
2023/12/14 10:31:11;;;;;;;26.77;18.42;;;;;;;8.58;68.33;99109.50;4469002;32;34192;-79
2023/12/14 10:33:41;;;;;;;25.62;18.70;;;;;;;8.48;68.88;99118.25;4469105;32;34512;-79
2023/12/14 10:36:13;;;;;;;25.02;19.37;;;;;;;8.83;67.92;99115.66;4468633;32;33925;-79
2023/12/14 10:38:44;;;;;;;25.17;19.80;;;;;;;8.83;67.82;99119.13;4470877;32;33937;-79
2023/12/14 10:41:18;;;;;;;27.75;18.67;;;;;;;8.34;69.27;99121.84;4471176;32;34216;-79
2023/12/14 10:43:49;;;;;;;28.05;20.88;;;;;;;8.40;69.17;99121.44;4470560;32;49951;-79
2023/12/14 10:46:40;;;;;;;25.00;19.03;;;;;;;8.78;67.63;99123.87;4470964;32;34043;-79
2023/12/14 10:49:11;;;;;;;26.02;18.42;;;;;;;8.85;67.69;99132.22;4470868;32;34863;-79
2023/12/14 10:51:42;;;;;;;26.10;19.77;;;;;;;8.81;67.90;99128.94;4470815;32;34095;-79
2023/12/14 10:54:16;;;;;;;26.35;19.60;;;;;;;8.88;67.93;99129.34;4470680;32;33743;-78
2023/12/14 10:56:46;;;;;;;25.88;20.65;;;;;;;8.93;68.03;99135.13;4471277;32;34235;-79
2023/12/14 10:59:16;;;;;;;54.78;30.17;;;;;;;8.83;68.29;99127.06;4471214;32;34119;-79
2023/12/14 11:01:53;;;;;;;29.30;20.45;;;;;;;9.14;67.57;99137.09;4470828;32;49136;-79
2023/12/14 11:04:22;;;;;;;43.72;28.08;;;;;;;9.14;67.73;99137.94;4470480;32;34218;-79
2023/12/14 11:06:55;;;;;;;39.28;26.20;;;;;;;9.27;67.07;99145.81;4470765;32;34023;-79
2023/12/14 11:09:25;;;;;;;23.45;18.52;;;;;;;9.56;66.21;99146.22;4456401;32;32448;-79
2023/12/14 11:12:03;;;;;;;31.33;20.83;;;;;;;9.24;66.93;99138.09;4470605;32;34836;-79
2023/12/14 11:14:33;;;;;;;30.85;22.17;;;;;;;9.23;67.23;99145.19;4470697;32;34555;-78
2023/12/14 11:17:07;;;;;;;24.70;18.40;;;;;;;9.39;66.97;99144.88;4470951;32;34596;-79
2023/12/14 11:19:50;;;;;;;26.35;18.70;;;;;;;8.96;67.76;99145.47;4470560;32;33884;-79
2023/12/14 11:22:29;;;;;;;26.17;19.15;;;;;;;8.96;67.86;99157.84;4470535;32;34237;-79
2023/12/14 11:24:58;;;;;;;24.77;17.27;;;;;;;9.32;67.26;99148.94;4470313;32;34554;-78
2023/12/14 11:27:30;;;;;;;21.23;17.45;;;;;;;9.44;66.26;99155.94;4470592;32;34027;-78
2023/12/14 11:30:06;;;;;;;21.85;18.77;;;;;;;9.18;67.25;99155.25;4470435;32;34756;-79
2023/12/14 11:32:36;;;;;;;27.35;18.98;;;;;;;9.18;67.45;99154.41;4470591;32;34219;-78
2023/12/14 11:35:08;;;;;;;25.88;18.27;;;;;;;9.24;67.27;99156.59;4470627;32;33837;-79
2023/12/14 11:37:40;;;;;;;;;;;;;;;9.19;67.57;99161.41;4470920;32;34272;-79
2023/12/14 11:40:13;;;;;;;24.50;17.40;;;;;;;9.33;67.67;99163.84;4470668;32;34388;-80
2023/12/14 11:42:46;;;;;;;21.90;16.67;;;;;;;9.32;67.53;99168.28;4464640;32;34477;-78